createdAt,value
2023-01-17T00:00:51.177Z,39.65
2023-01-17T00:03:54.361Z,38.97
2023-01-17T00:09:57.586Z,49.78
2023-01-17T00:12:54.138Z,53.00
2023-01-17T00:15:43.429Z,52.47
2023-01-17T00:18:32.694Z,49.40
2023-01-17T00:21:39.122Z,42.33
2023-01-17T00:24:45.518Z,35.58
2023-01-17T00:27:33.565Z,34.63
2023-01-17T00:30:24.165Z,36.97
2023-01-17T00:33:12.200Z,32.28
2023-01-17T00:36:01.788Z,30.38
2023-01-17T00:38:49.801Z,29.08
2023-01-17T00:41:37.806Z,28.35
2023-01-17T00:44:44.251Z,29.98
2023-01-17T00:47:53.201Z,29.60
2023-01-17T00:50:59.622Z,30.45
2023-01-17T00:54:06.338Z,36.53
2023-01-17T00:57:14.013Z,36.35
2023-01-17T01:00:20.665Z,33.88
2023-01-17T01:03:29.854Z,38.80
2023-01-17T01:06:36.329Z,30.85
2023-01-17T01:09:42.698Z,28.63
2023-01-17T01:12:49.898Z,27.48
2023-01-17T01:16:00.313Z,35.53
2023-01-17T01:19:08.620Z,28.52
2023-01-17T01:22:14.983Z,32.55
2023-01-17T01:25:22.091Z,33.55
2023-01-17T01:28:31.520Z,32.22
2023-01-17T01:31:38.141Z,31.63
2023-01-17T01:34:28.797Z,33.05
2023-01-17T01:37:18.028Z,33.05
2023-01-17T01:40:09.617Z,39.10
2023-01-17T01:43:03.212Z,40.17
2023-01-17T01:45:59.269Z,45.40
2023-01-17T01:48:54.972Z,43.88
2023-01-17T01:51:52.101Z,49.58
2023-01-17T01:54:50.284Z,46.60
2023-01-17T01:57:44.970Z,38.80
2023-01-17T02:00:37.419Z,42.97
2023-01-17T02:03:30.767Z,43.97
2023-01-17T02:06:31.467Z,44.65
2023-01-17T02:09:22.141Z,46.90
2023-01-17T02:12:12.269Z,48.17
2023-01-17T02:15:02.097Z,54.20
2023-01-17T02:18:04.085Z,50.88
2023-01-17T02:21:17.105Z,54.67
2023-01-17T02:25:00.678Z,56.97
2023-01-17T02:28:10.016Z,57.33
2023-01-17T02:31:05.705Z,60.72
2023-01-17T02:34:00.924Z,64.10
2023-01-17T02:37:02.391Z,63.28
2023-01-17T02:39:59.774Z,41.97
2023-01-17T02:42:56.436Z,41.80
2023-01-17T02:45:46.034Z,59.55
2023-01-17T02:48:39.201Z,38.40
2023-01-17T02:52:05.869Z,42.50
2023-01-17T02:55:14.500Z,44.30
2023-01-17T02:58:19.579Z,45.30
2023-01-17T03:01:22.437Z,43.75
2023-01-17T03:04:19.693Z,46.72
2023-01-17T03:07:17.600Z,48.60
2023-01-17T03:10:09.487Z,62.55
2023-01-17T03:13:01.075Z,56.13
2023-01-17T03:15:50.728Z,70.25
2023-01-17T03:18:40.075Z,72.07
2023-01-17T03:21:30.982Z,60.63
2023-01-17T03:24:20.157Z,81.93
2023-01-17T03:27:09.441Z,113.18
2023-01-17T03:29:58.664Z,122.38
2023-01-17T03:32:48.010Z,116.15
2023-01-17T03:35:37.349Z,138.77
2023-01-17T03:38:29.287Z,140.45
2023-01-17T03:41:18.620Z,144.00
2023-01-17T03:44:07.888Z,137.30
2023-01-17T03:46:57.102Z,135.63
2023-01-17T03:49:46.343Z,133.32
2023-01-17T03:52:35.603Z,134.90
2023-01-17T03:55:26.320Z,138.88
2023-01-17T03:58:16.385Z,132.02
2023-01-17T04:01:05.772Z,135.05
2023-01-17T04:03:55.454Z,161.50
2023-01-17T04:06:46.078Z,125.00
2023-01-17T04:09:35.619Z,121.30
2023-01-17T04:12:26.399Z,142.85
2023-01-17T04:15:15.858Z,125.18
2023-01-17T04:18:07.713Z,107.72
2023-01-17T04:20:56.951Z,132.77
2023-01-17T04:23:46.224Z,120.47
2023-01-17T04:26:35.382Z,99.15
2023-01-17T04:29:26.630Z,85.30
2023-01-17T04:32:16.130Z,75.30
2023-01-17T04:35:07.224Z,76.68
2023-01-17T04:37:56.441Z,77.25
2023-01-17T04:40:45.670Z,87.50
2023-01-17T04:43:35.117Z,94.78
2023-01-17T04:46:25.879Z,83.35
2023-01-17T04:49:15.125Z,85.75
2023-01-17T04:52:04.417Z,83.47
2023-01-17T04:54:53.749Z,87.57
2023-01-17T04:57:43.047Z,95.32
2023-01-17T05:00:32.364Z,104.45
2023-01-17T05:03:24.460Z,104.47
2023-01-17T05:06:13.772Z,61.53
2023-01-17T05:09:03.943Z,61.97
2023-01-17T05:11:53.320Z,68.95
2023-01-17T05:14:42.504Z,72.07
2023-01-17T05:17:31.683Z,73.20
2023-01-17T05:20:23.302Z,73.85
2023-01-17T05:23:13.199Z,70.80
2023-01-17T05:26:02.489Z,92.65
2023-01-17T05:28:52.267Z,91.50
2023-01-17T05:31:41.440Z,83.22
2023-01-17T05:34:30.616Z,81.78
2023-01-17T05:37:21.239Z,99.90
2023-01-17T05:40:12.749Z,87.43
2023-01-17T05:43:04.197Z,63.90
2023-01-17T05:45:53.473Z,87.90
2023-01-17T05:48:42.780Z,67.40
2023-01-17T05:51:31.930Z,74.07
2023-01-17T05:54:22.512Z,77.47
2023-01-17T05:57:12.301Z,51.58
2023-01-17T06:00:01.623Z,56.78
2023-01-17T06:02:51.932Z,57.83
2023-01-17T06:05:41.341Z,55.25
2023-01-17T06:08:30.799Z,75.95
2023-01-17T06:11:21.443Z,60.05
2023-01-17T06:14:10.980Z,46.13
2023-01-17T06:17:00.198Z,48.45
2023-01-17T06:19:49.403Z,66.85
2023-01-17T06:22:38.900Z,64.18
2023-01-17T06:25:28.155Z,64.20
2023-01-17T06:28:21.271Z,54.38
2023-01-17T06:34:03.134Z,40.00
2023-01-17T06:36:52.298Z,45.63
2023-01-17T06:39:41.543Z,57.38
2023-01-17T06:42:30.743Z,43.25
2023-01-17T06:45:22.180Z,53.47
2023-01-17T06:48:11.569Z,73.20
2023-01-17T06:51:00.909Z,97.13
2023-01-17T06:53:50.204Z,101.70
2023-01-17T06:56:39.459Z,101.47
2023-01-17T06:59:29.193Z,65.18
2023-01-17T07:02:19.887Z,75.43
2023-01-17T07:05:10.076Z,89.90
2023-01-17T07:07:59.729Z,88.78
2023-01-17T07:10:50.221Z,90.47
2023-01-17T07:13:40.601Z,101.07
2023-01-17T07:16:30.158Z,85.13
2023-01-17T07:19:20.793Z,83.05
2023-01-17T07:22:12.207Z,74.40
2023-01-17T07:25:01.577Z,98.57
2023-01-17T07:27:54.029Z,92.45
2023-01-17T07:30:43.266Z,88.30
2023-01-17T07:33:32.516Z,101.55
2023-01-17T07:36:23.081Z,75.80
2023-01-17T07:39:12.614Z,103.45
2023-01-17T07:42:01.878Z,88.85
2023-01-17T07:44:51.138Z,89.43
2023-01-17T07:47:40.728Z,61.70
2023-01-17T07:50:30.042Z,57.42
2023-01-17T07:53:20.751Z,51.28
2023-01-17T07:56:10.228Z,51.60
2023-01-17T07:58:59.470Z,56.08
2023-01-17T08:01:48.923Z,58.22
2023-01-17T08:04:38.178Z,47.28
2023-01-17T08:07:27.436Z,42.67
2023-01-17T08:10:18.830Z,34.90
2023-01-17T08:13:08.141Z,51.40
2023-01-17T08:15:57.389Z,33.20
2023-01-17T08:18:46.659Z,37.50
2023-01-17T08:21:36.033Z,31.33
2023-01-17T08:24:25.201Z,27.88
2023-01-17T08:27:15.884Z,32.40
2023-01-17T08:30:06.239Z,24.33
2023-01-17T08:32:55.661Z,31.23
2023-01-17T08:35:53.581Z,29.65
2023-01-17T08:38:42.806Z,32.65
2023-01-17T08:41:32.321Z,30.20
2023-01-17T08:44:23.362Z,33.58
2023-01-17T08:47:12.860Z,39.88
2023-01-17T08:50:02.219Z,29.88
2023-01-17T08:52:53.423Z,27.40
2023-01-17T08:55:42.684Z,30.02
2023-01-17T08:58:34.090Z,25.58
2023-01-17T09:01:24.795Z,27.60
2023-01-17T09:04:15.041Z,25.88
2023-01-17T09:07:07.562Z,29.08
2023-01-17T09:09:56.794Z,29.33
2023-01-17T09:12:45.975Z,23.17
2023-01-17T09:15:35.605Z,22.98
2023-01-17T09:18:26.296Z,29.48
2023-01-17T09:21:18.358Z,25.73
2023-01-17T09:24:08.151Z,31.20
2023-01-17T09:26:57.454Z,27.05
2023-01-17T09:29:46.740Z,25.33
2023-01-17T09:32:36.365Z,32.15
2023-01-17T09:35:27.197Z,28.70
2023-01-17T09:38:16.526Z,31.77
2023-01-17T09:41:27.746Z,35.22
2023-01-17T09:44:27.196Z,28.17
2023-01-17T09:47:30.311Z,34.88
2023-01-17T09:53:22.302Z,34.63
2023-01-17T09:56:16.976Z,38.55
2023-01-17T09:59:32.773Z,25.95
2023-01-17T10:02:46.911Z,34.67
2023-01-17T10:05:57.494Z,29.25
2023-01-17T10:09:12.190Z,31.00
2023-01-17T10:12:20.331Z,24.77
2023-01-17T10:16:00.169Z,26.17
2023-01-17T10:19:28.767Z,30.83
2023-01-17T10:22:38.253Z,30.70
2023-01-17T10:25:43.026Z,26.50
2023-01-17T10:28:39.382Z,23.05
2023-01-17T10:31:33.149Z,36.83
2023-01-17T10:34:28.956Z,30.10
2023-01-17T10:37:25.563Z,31.27
2023-01-17T10:40:21.765Z,25.02
2023-01-17T10:43:19.056Z,55.88
2023-01-17T10:46:20.224Z,27.98
2023-01-17T10:49:19.195Z,26.05
2023-01-17T10:52:17.118Z,39.63
2023-01-17T10:55:25.163Z,36.38
2023-01-17T10:58:14.812Z,33.53
2023-01-17T11:01:14.064Z,49.80
2023-01-17T11:04:03.572Z,66.40
2023-01-17T11:07:13.968Z,44.90
2023-01-17T11:10:03.282Z,51.38
2023-01-17T11:12:54.013Z,50.40
2023-01-17T11:15:49.891Z,56.70
2023-01-17T11:18:41.220Z,79.70
2023-01-17T11:21:30.794Z,70.20
2023-01-17T11:24:31.637Z,54.22
2023-01-17T11:27:27.586Z,63.67
2023-01-17T11:30:22.069Z,63.30
2023-01-17T11:33:35.393Z,64.97
2023-01-17T11:36:27.586Z,81.32
2023-01-17T11:39:29.796Z,65.50
2023-01-17T11:42:37.305Z,89.82
2023-01-17T11:45:30.511Z,76.43
2023-01-17T11:48:19.676Z,57.88
2023-01-17T11:51:28.268Z,72.28
2023-01-17T11:54:25.700Z,78.03
2023-01-17T11:57:24.209Z,43.53
2023-01-17T12:00:23.056Z,54.35
2023-01-17T12:03:28.930Z,60.67
2023-01-17T12:06:27.804Z,147.93
2023-01-17T12:09:28.703Z,101.10
2023-01-17T12:12:49.240Z,102.97
2023-01-17T12:15:57.836Z,99.70
2023-01-17T12:18:59.716Z,234.30
2023-01-17T12:22:00.390Z,91.03
2023-01-17T12:25:12.022Z,71.70
2023-01-17T12:28:32.797Z,45.13
2023-01-17T12:31:35.187Z,46.22
2023-01-17T12:34:31.221Z,34.73
2023-01-17T12:37:29.630Z,36.33
2023-01-17T12:40:27.345Z,64.88
2023-01-17T12:43:25.048Z,36.00
2023-01-17T12:46:21.451Z,34.38
2023-01-17T12:49:25.643Z,29.40
2023-01-17T12:52:26.263Z,26.10
2023-01-17T12:55:24.434Z,25.75
2023-01-17T12:58:24.865Z,27.00
2023-01-17T13:01:25.174Z,28.55
2023-01-17T13:04:24.088Z,28.33
2023-01-17T13:07:28.011Z,28.85
2023-01-17T13:10:35.432Z,29.42
2023-01-17T13:13:27.484Z,25.02
2023-01-17T13:16:20.490Z,34.65
2023-01-17T13:19:21.604Z,30.48
2023-01-17T13:22:18.102Z,30.83
2023-01-17T13:25:29.982Z,29.80
2023-01-17T13:28:32.427Z,37.88
2023-01-17T13:31:36.682Z,29.20
2023-01-17T13:35:01.630Z,26.33
2023-01-17T13:38:26.178Z,30.30
2023-01-17T13:41:41.843Z,30.17
2023-01-17T13:44:32.261Z,30.83
2023-01-17T13:47:52.631Z,27.05
2023-01-17T13:50:51.113Z,25.60
2023-01-17T13:53:59.533Z,21.30
2023-01-17T13:56:50.278Z,27.55
2023-01-17T13:59:40.544Z,39.92
2023-01-17T14:02:38.766Z,22.15
2023-01-17T14:05:49.376Z,25.52
2023-01-17T14:08:45.601Z,29.70
2023-01-17T14:11:36.457Z,61.28
2023-01-17T14:14:51.289Z,42.47
2023-01-17T14:18:00.730Z,31.98
2023-01-17T14:21:07.306Z,37.10
2023-01-17T14:24:05.381Z,41.65
2023-01-17T14:26:59.010Z,79.68
2023-01-17T14:29:56.002Z,36.08
2023-01-17T14:33:21.323Z,139.80
2023-01-17T14:36:22.250Z,24.95
2023-01-17T14:39:23.466Z,22.73
2023-01-17T14:42:17.034Z,19.88
2023-01-17T14:45:10.803Z,24.13
2023-01-17T14:48:03.208Z,17.80
2023-01-17T14:50:54.368Z,16.67
2023-01-17T14:53:55.681Z,23.45
2023-01-17T14:56:44.929Z,24.77
2023-01-17T14:59:34.177Z,26.90
2023-01-17T15:02:25.031Z,34.42
2023-01-17T15:05:22.095Z,28.35
2023-01-17T15:08:14.468Z,32.20
2023-01-17T15:11:07.258Z,34.72
2023-01-17T15:13:59.395Z,32.53
2023-01-17T15:16:52.107Z,25.88
2023-01-17T15:19:49.303Z,34.00
2023-01-17T15:22:39.387Z,32.05
2023-01-17T15:25:29.344Z,69.95
2023-01-17T15:28:19.649Z,27.60
2023-01-17T15:31:15.924Z,30.02
2023-01-17T15:34:09.212Z,56.35
2023-01-17T15:37:03.740Z,48.55
2023-01-17T15:39:52.989Z,36.35
2023-01-17T15:42:46.250Z,119.82
2023-01-17T15:45:36.135Z,35.25
2023-01-17T15:48:41.610Z,45.70
2023-01-17T15:51:38.899Z,67.32
2023-01-17T15:54:47.597Z,41.60
2023-01-17T15:57:38.947Z,39.92
2023-01-17T16:00:37.814Z,32.22
2023-01-17T16:03:30.342Z,30.83
2023-01-17T16:06:38.271Z,52.15
2023-01-17T16:09:27.551Z,49.53
2023-01-17T16:12:18.649Z,41.63
2023-01-17T16:15:13.555Z,44.15
2023-01-17T16:18:07.533Z,37.28
2023-01-17T16:21:01.598Z,42.22
2023-01-17T16:23:51.869Z,46.40
2023-01-17T16:26:41.271Z,50.22
2023-01-17T16:29:31.962Z,28.40
2023-01-17T16:32:21.595Z,38.17
2023-01-17T16:35:19.281Z,47.28
2023-01-17T16:38:12.360Z,43.70
2023-01-17T16:44:01.239Z,94.87
2023-01-17T16:46:51.968Z,37.03
2023-01-17T16:49:41.204Z,33.47
2023-01-17T16:52:30.558Z,27.42
2023-01-17T16:55:23.779Z,29.23
2023-01-17T16:58:13.241Z,30.08
2023-01-17T17:01:02.557Z,100.80
2023-01-17T17:03:53.173Z,40.08
2023-01-17T17:06:42.575Z,88.35
2023-01-17T17:09:31.760Z,31.08
2023-01-17T17:12:21.030Z,35.40
2023-01-17T17:15:12.254Z,50.17
2023-01-17T17:18:01.714Z,27.02
2023-01-17T17:20:52.417Z,37.42
2023-01-17T17:23:41.951Z,41.85
2023-01-17T17:26:35.260Z,51.10
2023-01-17T17:29:24.660Z,34.67
2023-01-17T17:32:13.937Z,36.50
2023-01-17T17:35:03.255Z,32.20
2023-01-17T17:37:54.402Z,32.45
2023-01-17T17:40:46.007Z,35.08
2023-01-17T17:43:41.516Z,30.92
2023-01-17T17:46:33.813Z,44.70
2023-01-17T17:49:23.215Z,73.85
2023-01-17T17:52:12.368Z,39.17
2023-01-17T17:55:03.281Z,60.38
2023-01-17T17:57:52.739Z,42.25
2023-01-17T18:00:42.081Z,28.42
2023-01-17T18:03:32.000Z,62.50
2023-01-17T18:06:21.702Z,32.28
2023-01-17T18:09:13.018Z,35.70
2023-01-17T18:12:04.062Z,62.35
2023-01-17T18:14:53.373Z,60.38
2023-01-17T18:17:42.761Z,31.75
2023-01-17T18:20:32.047Z,39.00
2023-01-17T18:23:21.479Z,63.22
2023-01-17T18:26:18.585Z,57.20
2023-01-17T18:29:14.292Z,56.10
2023-01-17T18:32:03.579Z,27.35
2023-01-17T18:34:52.760Z,31.05
2023-01-17T18:37:42.003Z,64.55
2023-01-17T18:40:31.245Z,34.55
2023-01-17T18:43:20.384Z,32.80
2023-01-17T18:46:12.069Z,127.07
2023-01-17T18:49:01.664Z,49.85
2023-01-17T18:51:51.858Z,43.40
2023-01-17T18:54:41.286Z,80.72
2023-01-17T18:57:30.493Z,52.83
2023-01-17T19:00:21.613Z,139.10
2023-01-17T19:03:12.299Z,170.95
2023-01-17T19:06:02.869Z,68.10
2023-01-17T19:08:52.871Z,59.25
2023-01-17T19:11:43.154Z,129.90
2023-01-17T19:14:32.497Z,104.68
2023-01-17T19:17:21.703Z,71.80
2023-01-17T19:20:14.382Z,83.47
2023-01-17T19:23:03.703Z,105.82
2023-01-17T19:25:56.670Z,77.25
2023-01-17T19:28:48.914Z,59.08
2023-01-17T19:31:42.771Z,54.30
2023-01-17T19:34:32.697Z,71.20
2023-01-17T19:37:23.318Z,40.72
2023-01-17T19:40:14.118Z,50.60
2023-01-17T19:43:04.574Z,87.18
2023-01-17T19:45:59.151Z,44.63
2023-01-17T19:48:48.403Z,104.32
2023-01-17T19:51:39.433Z,116.43
2023-01-17T19:54:30.109Z,56.30
2023-01-17T19:57:22.106Z,50.30
2023-01-17T20:00:16.710Z,95.43
2023-01-17T20:03:06.351Z,88.65
2023-01-17T20:05:58.715Z,45.63
2023-01-17T20:08:48.116Z,84.43
2023-01-17T20:11:39.088Z,83.45
2023-01-17T20:14:28.406Z,74.68
2023-01-17T20:17:17.894Z,79.32
2023-01-17T20:20:12.760Z,95.35
2023-01-17T20:23:05.552Z,222.65
2023-01-17T20:25:59.043Z,113.10
2023-01-17T20:28:52.514Z,62.75
2023-01-17T20:31:43.530Z,50.35
2023-01-17T20:34:32.894Z,58.75
2023-01-17T20:37:22.323Z,92.10
2023-01-17T20:40:13.659Z,62.53
2023-01-17T20:43:02.883Z,149.43
2023-01-17T20:45:58.056Z,83.57
2023-01-17T20:48:48.830Z,152.13
2023-01-17T20:51:40.099Z,89.50
2023-01-17T20:54:29.399Z,140.13
2023-01-17T20:57:18.623Z,94.07
2023-01-17T21:00:11.065Z,197.43
2023-01-17T21:03:01.869Z,123.15
2023-01-17T21:05:51.184Z,328.35
2023-01-17T21:08:43.506Z,115.93
2023-01-17T21:11:34.156Z,88.35
2023-01-17T21:14:23.915Z,212.10
2023-01-17T21:17:16.188Z,379.23
2023-01-17T21:20:08.172Z,134.10
2023-01-17T21:22:57.487Z,212.27
2023-01-17T21:25:57.950Z,231.13
2023-01-17T21:28:49.511Z,103.47
2023-01-17T21:31:40.966Z,177.27
2023-01-17T21:34:32.083Z,155.93
2023-01-17T21:37:23.597Z,83.35
2023-01-17T21:40:17.161Z,85.60
2023-01-17T21:43:06.500Z,62.85
2023-01-17T21:45:55.865Z,85.53
2023-01-17T21:48:45.549Z,88.53
2023-01-17T21:51:58.673Z,89.25
2023-01-17T21:55:06.750Z,120.68
2023-01-17T21:58:13.108Z,231.15
2023-01-17T22:01:11.152Z,152.13
2023-01-17T22:04:04.800Z,65.40
2023-01-17T22:06:54.116Z,78.68
2023-01-17T22:09:43.373Z,291.10
2023-01-17T22:12:34.165Z,318.45
2023-01-17T22:15:23.993Z,128.40
2023-01-17T22:18:15.842Z,96.65
2023-01-17T22:21:08.419Z,53.17
2023-01-17T22:23:59.516Z,42.45
2023-01-17T22:26:48.864Z,52.63
2023-01-17T22:29:39.632Z,154.05
2023-01-17T22:32:28.948Z,143.18
2023-01-17T22:35:18.290Z,63.22
2023-01-17T22:38:07.905Z,132.52
2023-01-17T22:41:07.971Z,87.30
2023-01-17T22:44:02.171Z,78.60
2023-01-17T22:46:52.761Z,79.32
2023-01-17T22:49:42.044Z,70.45
2023-01-17T22:52:31.335Z,54.97
2023-01-17T22:55:21.677Z,69.50
2023-01-17T22:58:11.004Z,46.85
2023-01-17T23:01:06.642Z,114.18
2023-01-17T23:04:00.316Z,88.93
2023-01-17T23:06:49.635Z,33.47
2023-01-17T23:09:38.908Z,59.72
2023-01-17T23:12:28.169Z,41.65
2023-01-17T23:15:40.670Z,146.63
2023-01-17T23:18:47.372Z,57.28
2023-01-17T23:21:55.588Z,49.28
2023-01-17T23:24:47.748Z,168.80
2023-01-17T23:27:56.644Z,63.87
2023-01-17T23:30:48.006Z,246.75
2023-01-17T23:33:37.266Z,93.10
2023-01-17T23:36:26.409Z,94.70
2023-01-17T23:39:17.515Z,41.78
2023-01-17T23:42:32.914Z,96.05
2023-01-17T23:45:22.197Z,69.00
2023-01-17T23:48:11.769Z,155.52
2023-01-17T23:51:08.035Z,103.82
2023-01-17T23:54:05.346Z,100.47
2023-01-17T23:56:56.128Z,198.00
2023-01-17T23:59:45.468Z,103.55
